sensor_id;sensor_type;location;lat;lon;timestamp;P1;durP1;ratioP1;P2;durP2;ratioP2
20884;SDS011;10602;48.000;9.654;2024-03-22T00:00:07;6.47;;;5.20;;
20884;SDS011;10602;48.000;9.654;2024-03-22T00:02:37;5.67;;;4.83;;
20884;SDS011;10602;48.000;9.654;2024-03-22T00:05:05;6.63;;;5.40;;
20884;SDS011;10602;48.000;9.654;2024-03-22T00:07:32;6.20;;;5.10;;
20884;SDS011;10602;48.000;9.654;2024-03-22T00:10:00;7.23;;;5.93;;
20884;SDS011;10602;48.000;9.654;2024-03-22T00:12:27;5.30;;;4.80;;
20884;SDS011;10602;48.000;9.654;2024-03-22T00:14:55;7.90;;;5.37;;
20884;SDS011;10602;48.000;9.654;2024-03-22T00:17:22;7.53;;;5.00;;
20884;SDS011;10602;48.000;9.654;2024-03-22T00:19:50;6.40;;;5.23;;
20884;SDS011;10602;48.000;9.654;2024-03-22T00:22:17;8.23;;;5.83;;
20884;SDS011;10602;48.000;9.654;2024-03-22T00:24:45;5.87;;;5.00;;
20884;SDS011;10602;48.000;9.654;2024-03-22T00:27:12;7.80;;;5.90;;
20884;SDS011;10602;48.000;9.654;2024-03-22T00:29:40;8.17;;;5.93;;
20884;SDS011;10602;48.000;9.654;2024-03-22T00:32:08;9.70;;;6.33;;
20884;SDS011;10602;48.000;9.654;2024-03-22T00:34:36;7.77;;;5.97;;
20884;SDS011;10602;48.000;9.654;2024-03-22T00:37:03;6.70;;;5.00;;
20884;SDS011;10602;48.000;9.654;2024-03-22T00:39:31;7.20;;;6.10;;
20884;SDS011;10602;48.000;9.654;2024-03-22T00:41:58;9.17;;;6.90;;
20884;SDS011;10602;48.000;9.654;2024-03-22T00:44:26;6.30;;;5.20;;
20884;SDS011;10602;48.000;9.654;2024-03-22T00:46:53;6.00;;;5.10;;
20884;SDS011;10602;48.000;9.654;2024-03-22T01:20:27;18.17;;;10.43;;
20884;SDS011;10602;48.000;9.654;2024-03-22T01:22:55;14.47;;;9.77;;
20884;SDS011;10602;48.000;9.654;2024-03-22T01:25:23;14.20;;;8.37;;
20884;SDS011;10602;48.000;9.654;2024-03-22T01:27:51;11.17;;;9.10;;
20884;SDS011;10602;48.000;9.654;2024-03-22T01:30:17;11.37;;;7.93;;
20884;SDS011;10602;48.000;9.654;2024-03-22T01:32:45;13.73;;;8.80;;
20884;SDS011;10602;48.000;9.654;2024-03-22T01:35:12;11.47;;;7.90;;
20884;SDS011;10602;48.000;9.654;2024-03-22T01:37:40;11.83;;;8.67;;
20884;SDS011;10602;48.000;9.654;2024-03-22T01:40:07;11.57;;;8.53;;
20884;SDS011;10602;48.000;9.654;2024-03-22T01:42:35;13.17;;;8.13;;
20884;SDS011;10602;48.000;9.654;2024-03-22T01:45:03;11.90;;;8.40;;
20884;SDS011;10602;48.000;9.654;2024-03-22T01:47:31;9.43;;;6.93;;
20884;SDS011;10602;48.000;9.654;2024-03-22T01:49:58;9.37;;;6.90;;
20884;SDS011;10602;48.000;9.654;2024-03-22T01:52:27;10.87;;;6.90;;
20884;SDS011;10602;48.000;9.654;2024-03-22T01:54:55;15.23;;;9.27;;
20884;SDS011;10602;48.000;9.654;2024-03-22T01:57:23;12.80;;;8.90;;
20884;SDS011;10602;48.000;9.654;2024-03-22T01:59:51;11.73;;;9.33;;
20884;SDS011;10602;48.000;9.654;2024-03-22T02:02:20;11.83;;;8.93;;
20884;SDS011;10602;48.000;9.654;2024-03-22T02:04:50;10.00;;;8.00;;
20884;SDS011;10602;48.000;9.654;2024-03-22T02:07:17;9.57;;;7.60;;
20884;SDS011;10602;48.000;9.654;2024-03-22T02:09:45;15.33;;;10.03;;
20884;SDS011;10602;48.000;9.654;2024-03-22T02:12:12;12.20;;;8.97;;
20884;SDS011;10602;48.000;9.654;2024-03-22T02:14:41;10.93;;;8.60;;
20884;SDS011;10602;48.000;9.654;2024-03-22T02:17:09;9.80;;;7.00;;
20884;SDS011;10602;48.000;9.654;2024-03-22T02:19:37;8.40;;;6.47;;
20884;SDS011;10602;48.000;9.654;2024-03-22T02:22:04;8.37;;;6.47;;
20884;SDS011;10602;48.000;9.654;2024-03-22T02:24:32;9.03;;;6.13;;
20884;SDS011;10602;48.000;9.654;2024-03-22T02:26:59;7.07;;;5.67;;
20884;SDS011;10602;48.000;9.654;2024-03-22T02:29:27;7.17;;;6.00;;
20884;SDS011;10602;48.000;9.654;2024-03-22T02:31:54;7.73;;;6.13;;
20884;SDS011;10602;48.000;9.654;2024-03-22T02:34:24;6.93;;;6.17;;
20884;SDS011;10602;48.000;9.654;2024-03-22T02:36:51;8.40;;;6.93;;
20884;SDS011;10602;48.000;9.654;2024-03-22T02:39:19;9.37;;;6.50;;
20884;SDS011;10602;48.000;9.654;2024-03-22T02:41:46;9.30;;;6.00;;
20884;SDS011;10602;48.000;9.654;2024-03-22T02:44:14;8.43;;;6.47;;
20884;SDS011;10602;48.000;9.654;2024-03-22T02:46:41;9.70;;;6.33;;
20884;SDS011;10602;48.000;9.654;2024-03-22T02:49:09;8.70;;;6.27;;
20884;SDS011;10602;48.000;9.654;2024-03-22T02:51:36;7.97;;;6.27;;
20884;SDS011;10602;48.000;9.654;2024-03-22T02:54:04;9.23;;;6.50;;
20884;SDS011;10602;48.000;9.654;2024-03-22T02:56:31;8.20;;;6.37;;
20884;SDS011;10602;48.000;9.654;2024-03-22T02:58:59;6.93;;;6.00;;
20884;SDS011;10602;48.000;9.654;2024-03-22T03:01:26;7.77;;;6.47;;
20884;SDS011;10602;48.000;9.654;2024-03-22T03:03:54;8.17;;;6.27;;
20884;SDS011;10602;48.000;9.654;2024-03-22T03:06:21;7.73;;;5.93;;
20884;SDS011;10602;48.000;9.654;2024-03-22T03:08:50;9.23;;;6.90;;
20884;SDS011;10602;48.000;9.654;2024-03-22T03:11:17;8.17;;;6.57;;
20884;SDS011;10602;48.000;9.654;2024-03-22T03:13:45;8.03;;;6.57;;
20884;SDS011;10602;48.000;9.654;2024-03-22T03:16:12;14.93;;;10.17;;
20884;SDS011;10602;48.000;9.654;2024-03-22T03:18:40;13.43;;;8.53;;
20884;SDS011;10602;48.000;9.654;2024-03-22T03:21:07;12.17;;;8.73;;
20884;SDS011;10602;48.000;9.654;2024-03-22T03:23:35;8.73;;;6.97;;
20884;SDS011;10602;48.000;9.654;2024-03-22T03:26:02;10.23;;;7.87;;
20884;SDS011;10602;48.000;9.654;2024-03-22T03:28:30;8.23;;;6.83;;
20884;SDS011;10602;48.000;9.654;2024-03-22T03:30:57;8.60;;;6.37;;
20884;SDS011;10602;48.000;9.654;2024-03-22T03:33:25;8.37;;;6.57;;
20884;SDS011;10602;48.000;9.654;2024-03-22T03:35:53;9.57;;;6.67;;
20884;SDS011;10602;48.000;9.654;2024-03-22T03:38:20;9.13;;;6.00;;
20884;SDS011;10602;48.000;9.654;2024-03-22T03:40:48;6.83;;;5.33;;
20884;SDS011;10602;48.000;9.654;2024-03-22T03:43:15;6.87;;;5.07;;
20884;SDS011;10602;48.000;9.654;2024-03-22T03:45:42;7.07;;;5.67;;
20884;SDS011;10602;48.000;9.654;2024-03-22T03:48:10;6.27;;;4.90;;
20884;SDS011;10602;48.000;9.654;2024-03-22T03:50:37;7.47;;;5.43;;
20884;SDS011;10602;48.000;9.654;2024-03-22T03:53:05;7.60;;;4.90;;
20884;SDS011;10602;48.000;9.654;2024-03-22T03:55:32;7.70;;;5.97;;
20884;SDS011;10602;48.000;9.654;2024-03-22T03:58:00;7.00;;;5.57;;
20884;SDS011;10602;48.000;9.654;2024-03-22T04:00:28;8.87;;;6.00;;
20884;SDS011;10602;48.000;9.654;2024-03-22T04:02:55;7.83;;;5.27;;
20884;SDS011;10602;48.000;9.654;2024-03-22T04:05:22;5.87;;;4.93;;
20884;SDS011;10602;48.000;9.654;2024-03-22T04:07:50;8.40;;;6.53;;
20884;SDS011;10602;48.000;9.654;2024-03-22T04:10:18;7.27;;;6.33;;
20884;SDS011;10602;48.000;9.654;2024-03-22T04:12:45;7.47;;;6.77;;
20884;SDS011;10602;48.000;9.654;2024-03-22T04:15:13;6.20;;;4.73;;
20884;SDS011;10602;48.000;9.654;2024-03-22T04:17:40;7.40;;;4.90;;
20884;SDS011;10602;48.000;9.654;2024-03-22T04:20:08;6.47;;;5.20;;
20884;SDS011;10602;48.000;9.654;2024-03-22T04:22:37;7.40;;;5.00;;
20884;SDS011;10602;48.000;9.654;2024-03-22T04:25:05;6.90;;;5.67;;
20884;SDS011;10602;48.000;9.654;2024-03-22T04:27:37;10.97;;;5.80;;
20884;SDS011;10602;48.000;9.654;2024-03-22T04:30:06;6.97;;;5.13;;
20884;SDS011;10602;48.000;9.654;2024-03-22T04:32:32;7.03;;;5.53;;
20884;SDS011;10602;48.000;9.654;2024-03-22T04:35:00;7.70;;;6.00;;
20884;SDS011;10602;48.000;9.654;2024-03-22T04:37:27;7.73;;;5.17;;
20884;SDS011;10602;48.000;9.654;2024-03-22T04:39:55;7.50;;;6.00;;
20884;SDS011;10602;48.000;9.654;2024-03-22T04:42:23;8.17;;;5.63;;
20884;SDS011;10602;48.000;9.654;2024-03-22T04:44:50;6.23;;;4.97;;
20884;SDS011;10602;48.000;9.654;2024-03-22T04:47:18;5.77;;;4.53;;
20884;SDS011;10602;48.000;9.654;2024-03-22T04:49:45;5.40;;;4.80;;
20884;SDS011;10602;48.000;9.654;2024-03-22T04:52:13;6.83;;;4.30;;
20884;SDS011;10602;48.000;9.654;2024-03-22T04:54:40;26.83;;;14.57;;
20884;SDS011;10602;48.000;9.654;2024-03-22T04:57:08;33.07;;;18.30;;
20884;SDS011;10602;48.000;9.654;2024-03-22T04:59:35;24.37;;;13.30;;
20884;SDS011;10602;48.000;9.654;2024-03-22T05:02:02;19.63;;;10.33;;
20884;SDS011;10602;48.000;9.654;2024-03-22T05:04:30;20.10;;;10.83;;
20884;SDS011;10602;48.000;9.654;2024-03-22T05:06:57;16.40;;;8.63;;
20884;SDS011;10602;48.000;9.654;2024-03-22T05:09:25;12.03;;;6.70;;
20884;SDS011;10602;48.000;9.654;2024-03-22T05:11:52;5.70;;;4.57;;
20884;SDS011;10602;48.000;9.654;2024-03-22T05:14:20;4.80;;;4.30;;
20884;SDS011;10602;48.000;9.654;2024-03-22T05:16:47;6.97;;;4.93;;
20884;SDS011;10602;48.000;9.654;2024-03-22T05:19:15;5.53;;;4.40;;
20884;SDS011;10602;48.000;9.654;2024-03-22T05:21:42;5.53;;;4.57;;
20884;SDS011;10602;48.000;9.654;2024-03-22T05:24:10;5.57;;;3.70;;
20884;SDS011;10602;48.000;9.654;2024-03-22T05:26:37;6.47;;;4.70;;
20884;SDS011;10602;48.000;9.654;2024-03-22T05:29:05;5.77;;;4.20;;
20884;SDS011;10602;48.000;9.654;2024-03-22T05:31:34;6.17;;;4.20;;
20884;SDS011;10602;48.000;9.654;2024-03-22T05:34:04;5.57;;;4.70;;
20884;SDS011;10602;48.000;9.654;2024-03-22T05:36:31;6.73;;;4.87;;
20884;SDS011;10602;48.000;9.654;2024-03-22T05:38:59;5.00;;;4.40;;
20884;SDS011;10602;48.000;9.654;2024-03-22T05:41:26;7.80;;;5.23;;
20884;SDS011;10602;48.000;9.654;2024-03-22T05:43:54;6.63;;;4.70;;
20884;SDS011;10602;48.000;9.654;2024-03-22T05:46:22;6.53;;;5.37;;
20884;SDS011;10602;48.000;9.654;2024-03-22T05:48:48;7.50;;;5.60;;
20884;SDS011;10602;48.000;9.654;2024-03-22T05:51:17;6.93;;;5.67;;
20884;SDS011;10602;48.000;9.654;2024-03-22T05:53:45;8.93;;;6.33;;
20884;SDS011;10602;48.000;9.654;2024-03-22T05:56:12;9.83;;;6.13;;
20884;SDS011;10602;48.000;9.654;2024-03-22T05:58:40;7.50;;;5.80;;
20884;SDS011;10602;48.000;9.654;2024-03-22T06:01:07;7.17;;;6.13;;
20884;SDS011;10602;48.000;9.654;2024-03-22T06:03:35;6.33;;;5.50;;
20884;SDS011;10602;48.000;9.654;2024-03-22T06:06:02;6.03;;;5.43;;
20884;SDS011;10602;48.000;9.654;2024-03-22T06:08:30;7.43;;;5.60;;
20884;SDS011;10602;48.000;9.654;2024-03-22T06:10:59;7.30;;;6.27;;
20884;SDS011;10602;48.000;9.654;2024-03-22T06:13:27;9.87;;;6.57;;
20884;SDS011;10602;48.000;9.654;2024-03-22T06:15:54;13.93;;;8.53;;
20884;SDS011;10602;48.000;9.654;2024-03-22T06:18:22;17.33;;;11.07;;
20884;SDS011;10602;48.000;9.654;2024-03-22T06:20:49;13.03;;;9.90;;
20884;SDS011;10602;48.000;9.654;2024-03-22T06:23:19;9.10;;;7.97;;
20884;SDS011;10602;48.000;9.654;2024-03-22T06:25:52;18.47;;;12.10;;
20884;SDS011;10602;48.000;9.654;2024-03-22T06:28:20;13.70;;;9.60;;
20884;SDS011;10602;48.000;9.654;2024-03-22T06:30:49;9.30;;;5.87;;
20884;SDS011;10602;48.000;9.654;2024-03-22T06:33:16;7.33;;;5.57;;
20884;SDS011;10602;48.000;9.654;2024-03-22T06:35:45;11.27;;;7.07;;
20884;SDS011;10602;48.000;9.654;2024-03-22T06:38:13;9.07;;;6.30;;
20884;SDS011;10602;48.000;9.654;2024-03-22T06:40:41;10.93;;;6.97;;
20884;SDS011;10602;48.000;9.654;2024-03-22T06:43:08;7.67;;;6.57;;
20884;SDS011;10602;48.000;9.654;2024-03-22T06:45:36;9.93;;;7.70;;
20884;SDS011;10602;48.000;9.654;2024-03-22T06:48:04;10.07;;;7.07;;
20884;SDS011;10602;48.000;9.654;2024-03-22T06:50:31;8.17;;;6.53;;
20884;SDS011;10602;48.000;9.654;2024-03-22T06:52:59;11.83;;;6.63;;
20884;SDS011;10602;48.000;9.654;2024-03-22T06:55:26;7.90;;;6.23;;
20884;SDS011;10602;48.000;9.654;2024-03-22T06:57:54;9.17;;;6.87;;
20884;SDS011;10602;48.000;9.654;2024-03-22T07:00:21;10.40;;;5.70;;
20884;SDS011;10602;48.000;9.654;2024-03-22T07:02:49;8.97;;;5.80;;
20884;SDS011;10602;48.000;9.654;2024-03-22T07:05:16;8.13;;;6.40;;
20884;SDS011;10602;48.000;9.654;2024-03-22T07:07:44;7.73;;;5.23;;
20884;SDS011;10602;48.000;9.654;2024-03-22T07:10:11;8.20;;;5.73;;
20884;SDS011;10602;48.000;9.654;2024-03-22T07:12:39;6.50;;;5.60;;
20884;SDS011;10602;48.000;9.654;2024-03-22T07:15:06;7.97;;;5.47;;
20884;SDS011;10602;48.000;9.654;2024-03-22T07:17:35;5.47;;;4.93;;
20884;SDS011;10602;48.000;9.654;2024-03-22T07:20:02;6.90;;;4.70;;
20884;SDS011;10602;48.000;9.654;2024-03-22T07:22:30;5.87;;;4.83;;
20884;SDS011;10602;48.000;9.654;2024-03-22T07:24:57;6.33;;;3.90;;
20884;SDS011;10602;48.000;9.654;2024-03-22T07:27:25;8.50;;;5.07;;
20884;SDS011;10602;48.000;9.654;2024-03-22T07:29:54;4.97;;;3.93;;
20884;SDS011;10602;48.000;9.654;2024-03-22T07:32:21;4.60;;;4.20;;
20884;SDS011;10602;48.000;9.654;2024-03-22T07:34:49;5.93;;;4.87;;
20884;SDS011;10602;48.000;9.654;2024-03-22T07:37:17;6.23;;;4.47;;
20884;SDS011;10602;48.000;9.654;2024-03-22T07:39:44;4.57;;;4.17;;
20884;SDS011;10602;48.000;9.654;2024-03-22T07:42:11;6.07;;;4.47;;
20884;SDS011;10602;48.000;9.654;2024-03-22T07:44:39;4.20;;;3.70;;
20884;SDS011;10602;48.000;9.654;2024-03-22T07:47:07;5.33;;;3.90;;
20884;SDS011;10602;48.000;9.654;2024-03-22T07:49:35;5.80;;;3.90;;
20884;SDS011;10602;48.000;9.654;2024-03-22T07:52:02;5.43;;;4.20;;
20884;SDS011;10602;48.000;9.654;2024-03-22T07:54:30;6.80;;;4.30;;
20884;SDS011;10602;48.000;9.654;2024-03-22T07:56:58;4.43;;;4.00;;
20884;SDS011;10602;48.000;9.654;2024-03-22T07:59:25;5.10;;;3.73;;
20884;SDS011;10602;48.000;9.654;2024-03-22T08:01:53;5.67;;;3.70;;
20884;SDS011;10602;48.000;9.654;2024-03-22T08:04:20;5.33;;;4.00;;
20884;SDS011;10602;48.000;9.654;2024-03-22T08:06:50;5.00;;;3.63;;
20884;SDS011;10602;48.000;9.654;2024-03-22T08:09:18;10.47;;;7.23;;
20884;SDS011;10602;48.000;9.654;2024-03-22T08:11:45;4.90;;;3.90;;
20884;SDS011;10602;48.000;9.654;2024-03-22T08:14:13;4.20;;;3.57;;
20884;SDS011;10602;48.000;9.654;2024-03-22T08:16:41;4.13;;;3.73;;
20884;SDS011;10602;48.000;9.654;2024-03-22T08:19:09;4.40;;;3.60;;
20884;SDS011;10602;48.000;9.654;2024-03-22T08:21:36;4.83;;;3.40;;
20884;SDS011;10602;48.000;9.654;2024-03-22T08:24:04;4.73;;;3.87;;
20884;SDS011;10602;48.000;9.654;2024-03-22T08:26:32;5.93;;;3.43;;
20884;SDS011;10602;48.000;9.654;2024-03-22T08:28:59;4.23;;;3.60;;
20884;SDS011;10602;48.000;9.654;2024-03-22T08:31:27;4.17;;;3.77;;
20884;SDS011;10602;48.000;9.654;2024-03-22T08:33:54;5.27;;;3.73;;
20884;SDS011;10602;48.000;9.654;2024-03-22T08:36:22;5.20;;;3.77;;
20884;SDS011;10602;48.000;9.654;2024-03-22T08:38:49;4.77;;;3.60;;
20884;SDS011;10602;48.000;9.654;2024-03-22T08:41:17;4.43;;;3.63;;
20884;SDS011;10602;48.000;9.654;2024-03-22T08:43:44;4.50;;;3.60;;
20884;SDS011;10602;48.000;9.654;2024-03-22T08:46:12;4.30;;;3.90;;
20884;SDS011;10602;48.000;9.654;2024-03-22T08:48:39;4.33;;;3.33;;
20884;SDS011;10602;48.000;9.654;2024-03-22T08:51:07;4.93;;;3.40;;
20884;SDS011;10602;48.000;9.654;2024-03-22T08:53:34;3.47;;;3.13;;
20884;SDS011;10602;48.000;9.654;2024-03-22T08:56:03;4.30;;;3.23;;
20884;SDS011;10602;48.000;9.654;2024-03-22T08:58:31;4.50;;;3.40;;
20884;SDS011;10602;48.000;9.654;2024-03-22T09:00:58;5.50;;;3.50;;
20884;SDS011;10602;48.000;9.654;2024-03-22T09:03:26;3.90;;;3.50;;
20884;SDS011;10602;48.000;9.654;2024-03-22T09:05:53;4.10;;;3.70;;
20884;SDS011;10602;48.000;9.654;2024-03-22T09:08:21;7.73;;;4.10;;
20884;SDS011;10602;48.000;9.654;2024-03-22T09:10:48;4.90;;;3.60;;
20884;SDS011;10602;48.000;9.654;2024-03-22T09:13:16;3.63;;;3.23;;
20884;SDS011;10602;48.000;9.654;2024-03-22T09:15:43;3.47;;;3.17;;
20884;SDS011;10602;48.000;9.654;2024-03-22T09:18:11;4.40;;;4.00;;
20884;SDS011;10602;48.000;9.654;2024-03-22T09:20:38;4.57;;;3.87;;
20884;SDS011;10602;48.000;9.654;2024-03-22T09:23:06;3.90;;;3.50;;
20884;SDS011;10602;48.000;9.654;2024-03-22T09:25:34;4.23;;;3.47;;
20884;SDS011;10602;48.000;9.654;2024-03-22T09:28:01;3.70;;;3.40;;
20884;SDS011;10602;48.000;9.654;2024-03-22T09:30:29;3.53;;;3.23;;
20884;SDS011;10602;48.000;9.654;2024-03-22T09:32:56;4.40;;;3.67;;
20884;SDS011;10602;48.000;9.654;2024-03-22T09:35:24;3.83;;;3.50;;
20884;SDS011;10602;48.000;9.654;2024-03-22T09:37:52;6.43;;;3.77;;
20884;SDS011;10602;48.000;9.654;2024-03-22T09:40:20;4.03;;;3.40;;
20884;SDS011;10602;48.000;9.654;2024-03-22T09:42:47;3.80;;;3.30;;
20884;SDS011;10602;48.000;9.654;2024-03-22T09:45:16;4.33;;;3.57;;
20884;SDS011;10602;48.000;9.654;2024-03-22T09:47:48;4.90;;;3.53;;
20884;SDS011;10602;48.000;9.654;2024-03-22T09:50:16;3.87;;;3.30;;
20884;SDS011;10602;48.000;9.654;2024-03-22T09:52:44;3.90;;;3.50;;
20884;SDS011;10602;48.000;9.654;2024-03-22T09:55:12;4.47;;;3.97;;
20884;SDS011;10602;48.000;9.654;2024-03-22T09:57:40;3.50;;;3.20;;
20884;SDS011;10602;48.000;9.654;2024-03-22T10:00:09;5.53;;;3.70;;
20884;SDS011;10602;48.000;9.654;2024-03-22T10:02:38;3.67;;;3.17;;
20884;SDS011;10602;48.000;9.654;2024-03-22T10:05:06;3.87;;;3.53;;
20884;SDS011;10602;48.000;9.654;2024-03-22T10:07:34;4.93;;;3.83;;
20884;SDS011;10602;48.000;9.654;2024-03-22T10:10:02;4.07;;;3.67;;
20884;SDS011;10602;48.000;9.654;2024-03-22T10:12:30;4.97;;;3.40;;
20884;SDS011;10602;48.000;9.654;2024-03-22T10:14:58;4.40;;;3.70;;
20884;SDS011;10602;48.000;9.654;2024-03-22T10:17:26;4.00;;;3.57;;
20884;SDS011;10602;48.000;9.654;2024-03-22T10:20:00;4.23;;;3.63;;
20884;SDS011;10602;48.000;9.654;2024-03-22T10:22:32;4.83;;;3.10;;
20884;SDS011;10602;48.000;9.654;2024-03-22T10:24:59;3.57;;;3.27;;
20884;SDS011;10602;48.000;9.654;2024-03-22T10:27:27;4.37;;;3.27;;
20884;SDS011;10602;48.000;9.654;2024-03-22T10:29:55;3.23;;;2.90;;
20884;SDS011;10602;48.000;9.654;2024-03-22T10:32:23;3.70;;;2.60;;
20884;SDS011;10602;48.000;9.654;2024-03-22T10:34:51;2.70;;;2.50;;
20884;SDS011;10602;48.000;9.654;2024-03-22T10:37:19;2.77;;;2.47;;
20884;SDS011;10602;48.000;9.654;2024-03-22T10:39:49;2.63;;;2.43;;
20884;SDS011;10602;48.000;9.654;2024-03-22T10:42:19;3.20;;;2.27;;
20884;SDS011;10602;48.000;9.654;2024-03-22T10:44:46;2.60;;;2.27;;
20884;SDS011;10602;48.000;9.654;2024-03-22T10:47:14;2.97;;;2.60;;
20884;SDS011;10602;48.000;9.654;2024-03-22T10:49:44;4.93;;;2.80;;
20884;SDS011;10602;48.000;9.654;2024-03-22T10:52:15;4.63;;;2.90;;
20884;SDS011;10602;48.000;9.654;2024-03-22T10:54:44;3.50;;;2.40;;
20884;SDS011;10602;48.000;9.654;2024-03-22T10:57:14;3.90;;;2.60;;
20884;SDS011;10602;48.000;9.654;2024-03-22T10:59:42;3.83;;;2.37;;
20884;SDS011;10602;48.000;9.654;2024-03-22T11:02:10;2.73;;;2.20;;
20884;SDS011;10602;48.000;9.654;2024-03-22T11:04:39;2.90;;;2.53;;
20884;SDS011;10602;48.000;9.654;2024-03-22T11:07:06;3.60;;;2.70;;
20884;SDS011;10602;48.000;9.654;2024-03-22T11:09:35;2.60;;;2.40;;
20884;SDS011;10602;48.000;9.654;2024-03-22T11:12:02;3.13;;;2.40;;
20884;SDS011;10602;48.000;9.654;2024-03-22T11:14:31;3.20;;;2.50;;
20884;SDS011;10602;48.000;9.654;2024-03-22T11:16:58;3.37;;;2.33;;
20884;SDS011;10602;48.000;9.654;2024-03-22T11:19:26;5.20;;;2.50;;
20884;SDS011;10602;48.000;9.654;2024-03-22T11:21:54;2.37;;;1.80;;
20884;SDS011;10602;48.000;9.654;2024-03-22T11:24:21;2.40;;;2.20;;
20884;SDS011;10602;48.000;9.654;2024-03-22T11:26:49;3.43;;;2.20;;
20884;SDS011;10602;48.000;9.654;2024-03-22T11:29:16;3.40;;;2.40;;
20884;SDS011;10602;48.000;9.654;2024-03-22T11:31:44;2.63;;;2.20;;
20884;SDS011;10602;48.000;9.654;2024-03-22T11:34:11;2.20;;;2.00;;
20884;SDS011;10602;48.000;9.654;2024-03-22T11:36:39;2.97;;;1.93;;
20884;SDS011;10602;48.000;9.654;2024-03-22T11:39:07;3.20;;;2.20;;
20884;SDS011;10602;48.000;9.654;2024-03-22T11:41:34;2.30;;;1.80;;
20884;SDS011;10602;48.000;9.654;2024-03-22T11:44:02;4.07;;;2.33;;
20884;SDS011;10602;48.000;9.654;2024-03-22T11:46:30;2.67;;;2.03;;
20884;SDS011;10602;48.000;9.654;2024-03-22T11:48:58;2.40;;;2.13;;
20884;SDS011;10602;48.000;9.654;2024-03-22T11:51:26;2.10;;;1.87;;
20884;SDS011;10602;48.000;9.654;2024-03-22T11:53:54;3.13;;;2.00;;
20884;SDS011;10602;48.000;9.654;2024-03-22T11:56:22;2.43;;;1.90;;
20884;SDS011;10602;48.000;9.654;2024-03-22T11:58:57;3.77;;;1.90;;
20884;SDS011;10602;48.000;9.654;2024-03-22T12:01:26;2.00;;;1.80;;
20884;SDS011;10602;48.000;9.654;2024-03-22T12:03:54;2.27;;;1.90;;
20884;SDS011;10602;48.000;9.654;2024-03-22T12:06:22;2.37;;;1.97;;
20884;SDS011;10602;48.000;9.654;2024-03-22T12:08:49;3.40;;;1.90;;
20884;SDS011;10602;48.000;9.654;2024-03-22T12:11:17;2.80;;;2.00;;
20884;SDS011;10602;48.000;9.654;2024-03-22T12:13:44;2.60;;;1.90;;
20884;SDS011;10602;48.000;9.654;2024-03-22T12:16:13;2.27;;;1.93;;
20884;SDS011;10602;48.000;9.654;2024-03-22T12:18:41;1.90;;;1.70;;
20884;SDS011;10602;48.000;9.654;2024-03-22T12:21:08;2.40;;;2.10;;
20884;SDS011;10602;48.000;9.654;2024-03-22T12:23:36;3.87;;;1.97;;
20884;SDS011;10602;48.000;9.654;2024-03-22T12:26:03;2.00;;;1.73;;
20884;SDS011;10602;48.000;9.654;2024-03-22T12:28:32;3.87;;;1.90;;
20884;SDS011;10602;48.000;9.654;2024-03-22T12:30:59;4.37;;;1.80;;
20884;SDS011;10602;48.000;9.654;2024-03-22T12:33:27;1.93;;;1.60;;
20884;SDS011;10602;48.000;9.654;2024-03-22T12:35:54;1.77;;;1.63;;
20884;SDS011;10602;48.000;9.654;2024-03-22T12:38:22;2.57;;;1.90;;
20884;SDS011;10602;48.000;9.654;2024-03-22T12:40:49;2.63;;;2.10;;
20884;SDS011;10602;48.000;9.654;2024-03-22T12:43:17;2.23;;;2.00;;
20884;SDS011;10602;48.000;9.654;2024-03-22T12:45:44;2.53;;;1.70;;
20884;SDS011;10602;48.000;9.654;2024-03-22T12:48:12;3.93;;;2.03;;
20884;SDS011;10602;48.000;9.654;2024-03-22T12:50:39;3.43;;;1.97;;
20884;SDS011;10602;48.000;9.654;2024-03-22T12:53:07;3.73;;;2.73;;
20884;SDS011;10602;48.000;9.654;2024-03-22T12:55:34;3.27;;;2.30;;
20884;SDS011;10602;48.000;9.654;2024-03-22T12:58:03;2.73;;;2.40;;
20884;SDS011;10602;48.000;9.654;2024-03-22T13:00:31;2.73;;;2.20;;
20884;SDS011;10602;48.000;9.654;2024-03-22T13:02:59;2.33;;;2.10;;
20884;SDS011;10602;48.000;9.654;2024-03-22T13:05:26;2.60;;;2.30;;
20884;SDS011;10602;48.000;9.654;2024-03-22T13:07:54;3.03;;;2.30;;
20884;SDS011;10602;48.000;9.654;2024-03-22T13:10:22;2.30;;;2.00;;
20884;SDS011;10602;48.000;9.654;2024-03-22T13:12:49;3.50;;;2.47;;
20884;SDS011;10602;48.000;9.654;2024-03-22T13:15:17;3.07;;;2.30;;
20884;SDS011;10602;48.000;9.654;2024-03-22T13:17:45;2.80;;;2.40;;
20884;SDS011;10602;48.000;9.654;2024-03-22T13:20:12;2.33;;;2.00;;
20884;SDS011;10602;48.000;9.654;2024-03-22T13:22:41;3.87;;;2.33;;
20884;SDS011;10602;48.000;9.654;2024-03-22T13:25:08;4.17;;;2.10;;
20884;SDS011;10602;48.000;9.654;2024-03-22T13:27:37;2.70;;;2.03;;
20884;SDS011;10602;48.000;9.654;2024-03-22T13:30:05;2.73;;;1.83;;
20884;SDS011;10602;48.000;9.654;2024-03-22T13:32:36;3.07;;;1.97;;
20884;SDS011;10602;48.000;9.654;2024-03-22T13:35:04;2.80;;;2.13;;
20884;SDS011;10602;48.000;9.654;2024-03-22T13:37:32;3.53;;;2.40;;
20884;SDS011;10602;48.000;9.654;2024-03-22T13:40:00;3.20;;;2.60;;
20884;SDS011;10602;48.000;9.654;2024-03-22T13:42:28;2.80;;;2.30;;
20884;SDS011;10602;48.000;9.654;2024-03-22T13:44:56;2.50;;;2.20;;
20884;SDS011;10602;48.000;9.654;2024-03-22T13:47:24;3.10;;;2.20;;
20884;SDS011;10602;48.000;9.654;2024-03-22T13:49:56;3.83;;;2.50;;
20884;SDS011;10602;48.000;9.654;2024-03-22T13:52:23;2.93;;;2.10;;
20884;SDS011;10602;48.000;9.654;2024-03-22T13:54:51;4.77;;;3.20;;
20884;SDS011;10602;48.000;9.654;2024-03-22T13:57:19;3.33;;;2.60;;
20884;SDS011;10602;48.000;9.654;2024-03-22T13:59:46;2.43;;;2.03;;
20884;SDS011;10602;48.000;9.654;2024-03-22T14:02:14;2.10;;;1.90;;
20884;SDS011;10602;48.000;9.654;2024-03-22T14:04:41;3.47;;;2.10;;
20884;SDS011;10602;48.000;9.654;2024-03-22T14:07:09;2.63;;;2.10;;
20884;SDS011;10602;48.000;9.654;2024-03-22T14:09:36;4.07;;;2.20;;
20884;SDS011;10602;48.000;9.654;2024-03-22T14:12:06;3.80;;;2.30;;
20884;SDS011;10602;48.000;9.654;2024-03-22T14:14:34;2.23;;;2.03;;
20884;SDS011;10602;48.000;9.654;2024-03-22T14:17:01;4.10;;;2.50;;
20884;SDS011;10602;48.000;9.654;2024-03-22T14:19:29;3.27;;;2.20;;
20884;SDS011;10602;48.000;9.654;2024-03-22T14:21:56;4.47;;;2.40;;
20884;SDS011;10602;48.000;9.654;2024-03-22T14:24:24;3.13;;;1.80;;
20884;SDS011;10602;48.000;9.654;2024-03-22T14:26:51;2.77;;;2.23;;
20884;SDS011;10602;48.000;9.654;2024-03-22T14:29:19;2.80;;;2.50;;
20884;SDS011;10602;48.000;9.654;2024-03-22T14:31:46;5.43;;;2.30;;
20884;SDS011;10602;48.000;9.654;2024-03-22T14:34:14;3.27;;;2.07;;
20884;SDS011;10602;48.000;9.654;2024-03-22T14:36:43;4.27;;;2.20;;
20884;SDS011;10602;48.000;9.654;2024-03-22T14:39:10;2.60;;;2.40;;
20884;SDS011;10602;48.000;9.654;2024-03-22T14:41:38;3.40;;;2.40;;
20884;SDS011;10602;48.000;9.654;2024-03-22T14:44:05;5.33;;;2.33;;
20884;SDS011;10602;48.000;9.654;2024-03-22T14:46:38;2.30;;;2.10;;
20884;SDS011;10602;48.000;9.654;2024-03-22T14:49:06;3.50;;;2.80;;
20884;SDS011;10602;48.000;9.654;2024-03-22T14:51:33;3.67;;;2.60;;
20884;SDS011;10602;48.000;9.654;2024-03-22T14:54:01;2.60;;;2.40;;
20884;SDS011;10602;48.000;9.654;2024-03-22T14:56:30;3.23;;;2.57;;
20884;SDS011;10602;48.000;9.654;2024-03-22T14:58:58;3.23;;;2.50;;
20884;SDS011;10602;48.000;9.654;2024-03-22T15:01:27;5.80;;;2.97;;
20884;SDS011;10602;48.000;9.654;2024-03-22T15:03:54;5.03;;;2.70;;
20884;SDS011;10602;48.000;9.654;2024-03-22T15:06:22;3.27;;;2.33;;
20884;SDS011;10602;48.000;9.654;2024-03-22T15:08:50;6.20;;;3.43;;
20884;SDS011;10602;48.000;9.654;2024-03-22T15:11:17;4.33;;;2.60;;
20884;SDS011;10602;48.000;9.654;2024-03-22T15:13:45;3.83;;;2.60;;
20884;SDS011;10602;48.000;9.654;2024-03-22T15:16:13;2.57;;;2.37;;
20884;SDS011;10602;48.000;9.654;2024-03-22T15:18:46;2.63;;;2.30;;